sensor_id;sensor_type;location;lat;lon;timestamp;temperature;humidity
53954;HTU21D;39862;54.856;26.318;2023-02-28T00:01:39;-7;63.8
53954;HTU21D;39862;54.856;26.318;2023-02-28T00:06:33;-7.1;63.8
53954;HTU21D;39862;54.856;26.318;2023-02-28T00:11:47;-7.1;63.7
53954;HTU21D;39862;54.856;26.318;2023-02-28T00:16:39;-7.2;63.7
53954;HTU21D;39862;54.856;26.318;2023-02-28T00:21:13;-7.2;63.7
53954;HTU21D;39862;54.856;26.318;2023-02-28T00:26:27;-7.3;63.7
53954;HTU21D;39862;54.856;26.318;2023-02-28T00:31:19;-7.3;63.8
53954;HTU21D;39862;54.856;26.318;2023-02-28T00:36:13;-7.3;63.7
53954;HTU21D;39862;54.856;26.318;2023-02-28T00:41:25;-7.4;63.7
53954;HTU21D;39862;54.856;26.318;2023-02-28T00:46:13;-7.4;63.6
53954;HTU21D;39862;54.856;26.318;2023-02-28T00:51:27;-7.5;63.6
53954;HTU21D;39862;54.856;26.318;2023-02-28T00:56:21;-7.5;63.6
53954;HTU21D;39862;54.856;26.318;2023-02-28T01:01:39;-7.6;63.6
53954;HTU21D;39862;54.856;26.318;2023-02-28T01:06:39;-7.6;63.7
53954;HTU21D;39862;54.856;26.318;2023-02-28T01:11:14;-7.7;63.6
53954;HTU21D;39862;54.856;26.318;2023-02-28T01:16:13;-7.7;63.6
53954;HTU21D;39862;54.856;26.318;2023-02-28T01:21:21;-7.7;63.5
53954;HTU21D;39862;54.856;26.318;2023-02-28T01:26:14;-7.8;63.5
53954;HTU21D;39862;54.856;26.318;2023-02-28T01:31:13;-7.8;63.4
53954;HTU21D;39862;54.856;26.318;2023-02-28T01:36:14;-7.9;63.4
53954;HTU21D;39862;54.856;26.318;2023-02-28T01:41:16;-7.9;63.4
53954;HTU21D;39862;54.856;26.318;2023-02-28T01:46:37;-8;63.4
53954;HTU21D;39862;54.856;26.318;2023-02-28T01:51:26;-8;63.4
53954;HTU21D;39862;54.856;26.318;2023-02-28T01:56:20;-8;63.3
53954;HTU21D;39862;54.856;26.318;2023-02-28T02:01:13;-8.1;63.3
53954;HTU21D;39862;54.856;26.318;2023-02-28T02:06:28;-8.1;63.3
53954;HTU21D;39862;54.856;26.318;2023-02-28T02:11:25;-8.2;63.3
53954;HTU21D;39862;54.856;26.318;2023-02-28T02:16:17;-8.2;63.3
53954;HTU21D;39862;54.856;26.318;2023-02-28T02:21:46;-8.2;63.2
53954;HTU21D;39862;54.856;26.318;2023-02-28T02:26:44;-8.3;63.2
53954;HTU21D;39862;54.856;26.318;2023-02-28T02:31:29;-8.3;63.2
53954;HTU21D;39862;54.856;26.318;2023-02-28T02:36:37;-8.3;63.2
53954;HTU21D;39862;54.856;26.318;2023-02-28T02:41:14;-8.4;63.3
53954;HTU21D;39862;54.856;26.318;2023-02-28T02:46:33;-8.4;63.3
53954;HTU21D;39862;54.856;26.318;2023-02-28T02:51:27;-8.5;63.2
53954;HTU21D;39862;54.856;26.318;2023-02-28T02:56:13;-8.5;63.2
53954;HTU21D;39862;54.856;26.318;2023-02-28T03:01:19;-8.5;63.2
53954;HTU21D;39862;54.856;26.318;2023-02-28T03:07:01;-8.6;63.2
53954;HTU21D;39862;54.856;26.318;2023-02-28T03:11:13;-8.6;63.3
53954;HTU21D;39862;54.856;26.318;2023-02-28T03:16:22;-8.6;63.3
53954;HTU21D;39862;54.856;26.318;2023-02-28T03:21:28;-8.6;63.3
53954;HTU21D;39862;54.856;26.318;2023-02-28T03:26:22;-8.6;63.3
53954;HTU21D;39862;54.856;26.318;2023-02-28T03:31:15;-8.7;63.3
53954;HTU21D;39862;54.856;26.318;2023-02-28T03:36:14;-8.7;63.3
53954;HTU21D;39862;54.856;26.318;2023-02-28T03:41:14;-8.7;63.4
53954;HTU21D;39862;54.856;26.318;2023-02-28T03:46:14;-8.7;63.4
53954;HTU21D;39862;54.856;26.318;2023-02-28T03:51:14;-8.8;63.4
53954;HTU21D;39862;54.856;26.318;2023-02-28T03:56:29;-8.8;63.4
53954;HTU21D;39862;54.856;26.318;2023-02-28T04:01:32;-8.8;63.5
53954;HTU21D;39862;54.856;26.318;2023-02-28T04:06:27;-8.8;63.5
53954;HTU21D;39862;54.856;26.318;2023-02-28T04:11:27;-8.8;63.5
53954;HTU21D;39862;54.856;26.318;2023-02-28T04:16:49;-8.8;63.5
53954;HTU21D;39862;54.856;26.318;2023-02-28T04:21:27;-8.9;63.5
53954;HTU21D;39862;54.856;26.318;2023-02-28T04:26:46;-8.9;63.5
53954;HTU21D;39862;54.856;26.318;2023-02-28T04:31:13;-8.9;63.5
53954;HTU21D;39862;54.856;26.318;2023-02-28T04:36:13;-8.9;63.5
53954;HTU21D;39862;54.856;26.318;2023-02-28T04:41:21;-8.9;63.6
53954;HTU21D;39862;54.856;26.318;2023-02-28T04:46:13;-8.9;63.7
53954;HTU21D;39862;54.856;26.318;2023-02-28T04:51:25;-8.9;63.8
53954;HTU21D;39862;54.856;26.318;2023-02-28T04:56:14;-9;63.8
53954;HTU21D;39862;54.856;26.318;2023-02-28T05:01:39;-9;63.8
53954;HTU21D;39862;54.856;26.318;2023-02-28T05:06:13;-9;63.8
53954;HTU21D;39862;54.856;26.318;2023-02-28T05:11:28;-9;63.9
53954;HTU21D;39862;54.856;26.318;2023-02-28T05:16:25;-9;64.1
53954;HTU21D;39862;54.856;26.318;2023-02-28T05:21:28;-9;64.2
53954;HTU21D;39862;54.856;26.318;2023-02-28T05:26:26;-9;64.2
53954;HTU21D;39862;54.856;26.318;2023-02-28T05:31:19;-8.9;64.2
53954;HTU21D;39862;54.856;26.318;2023-02-28T05:36:27;-8.9;64.2
53954;HTU21D;39862;54.856;26.318;2023-02-28T05:41:19;-8.9;64.1
53954;HTU21D;39862;54.856;26.318;2023-02-28T05:46:25;-8.9;64.1
53954;HTU21D;39862;54.856;26.318;2023-02-28T05:51:13;-8.9;64.4
53954;HTU21D;39862;54.856;26.318;2023-02-28T05:56:13;-8.8;64.6
53954;HTU21D;39862;54.856;26.318;2023-02-28T06:01:40;-8.8;64.7
53954;HTU21D;39862;54.856;26.318;2023-02-28T06:06:31;-8.7;64.8
53954;HTU21D;39862;54.856;26.318;2023-02-28T06:11:13;-8.7;65.2
53954;HTU21D;39862;54.856;26.318;2023-02-28T06:16:13;-8.6;65.6
53954;HTU21D;39862;54.856;26.318;2023-02-28T06:21:21;-8.5;65.8
53954;HTU21D;39862;54.856;26.318;2023-02-28T06:26:39;-8.3;66.2
53954;HTU21D;39862;54.856;26.318;2023-02-28T06:31:25;-8.2;66.4
53954;HTU21D;39862;54.856;26.318;2023-02-28T06:36:13;-8.1;66.8
53954;HTU21D;39862;54.856;26.318;2023-02-28T06:41:25;-7.9;67.3
53954;HTU21D;39862;54.856;26.318;2023-02-28T06:46:33;-7.8;67.4
53954;HTU21D;39862;54.856;26.318;2023-02-28T06:51:14;-7.6;67.7
53954;HTU21D;39862;54.856;26.318;2023-02-28T06:56:14;-7.4;67.9
53954;HTU21D;39862;54.856;26.318;2023-02-28T07:01:39;-7.2;68.2
53954;HTU21D;39862;54.856;26.318;2023-02-28T07:06:13;-7;68.9
53954;HTU21D;39862;54.856;26.318;2023-02-28T07:11:13;-6.8;69.4
53954;HTU21D;39862;54.856;26.318;2023-02-28T07:16:27;-6.5;69.8
53954;HTU21D;39862;54.856;26.318;2023-02-28T07:21:25;-6.2;70.3
53954;HTU21D;39862;54.856;26.318;2023-02-28T07:26:27;-5.8;71
53954;HTU21D;39862;54.856;26.318;2023-02-28T07:31:33;-5.5;72
53954;HTU21D;39862;54.856;26.318;2023-02-28T07:36:33;-5.1;72.5
53954;HTU21D;39862;54.856;26.318;2023-02-28T07:41:27;-4.7;73.2
53954;HTU21D;39862;54.856;26.318;2023-02-28T07:46:14;-4.4;73.9
53954;HTU21D;39862;54.856;26.318;2023-02-28T07:51:25;-4;74.4
53954;HTU21D;39862;54.856;26.318;2023-02-28T07:56:33;-3.7;74.7
53954;HTU21D;39862;54.856;26.318;2023-02-28T08:01:13;-3.3;75.3
53954;HTU21D;39862;54.856;26.318;2023-02-28T08:06:39;-2.9;75.8
53954;HTU21D;39862;54.856;26.318;2023-02-28T08:11:13;-2.6;76.3
53954;HTU21D;39862;54.856;26.318;2023-02-28T08:16:13;-2.3;76.6
53954;HTU21D;39862;54.856;26.318;2023-02-28T08:21:13;-1.9;76.9
53954;HTU21D;39862;54.856;26.318;2023-02-28T08:26:21;-1.6;77.1
53954;HTU21D;39862;54.856;26.318;2023-02-28T08:31:27;-1.3;77.3
53954;HTU21D;39862;54.856;26.318;2023-02-28T08:36:21;-0.9;78.2
53954;HTU21D;39862;54.856;26.318;2023-02-28T08:41:25;-0.4;79.3
53954;HTU21D;39862;54.856;26.318;2023-02-28T08:46:13;0.1;79.9
53954;HTU21D;39862;54.856;26.318;2023-02-28T08:51:33;0.6;79.5
53954;HTU21D;39862;54.856;26.318;2023-02-28T08:56:26;1;78.3
53954;HTU21D;39862;54.856;26.318;2023-02-28T09:01:33;1.3;76.9
53954;HTU21D;39862;54.856;26.318;2023-02-28T09:06:26;1.5;75.4
53954;HTU21D;39862;54.856;26.318;2023-02-28T09:11:33;1.6;74.4
53954;HTU21D;39862;54.856;26.318;2023-02-28T09:16:14;1.7;73.7
53954;HTU21D;39862;54.856;26.318;2023-02-28T09:21:39;1.8;73.1
53954;HTU21D;39862;54.856;26.318;2023-02-28T09:26:33;1.8;72.5
53954;HTU21D;39862;54.856;26.318;2023-02-28T09:31:26;1.9;72.2
53954;HTU21D;39862;54.856;26.318;2023-02-28T09:36:21;1.9;71.9
53954;HTU21D;39862;54.856;26.318;2023-02-28T09:41:36;2;71.7
53954;HTU21D;39862;54.856;26.318;2023-02-28T09:46:25;2;71.6
53954;HTU21D;39862;54.856;26.318;2023-02-28T09:51:15;2.1;71.6
53954;HTU21D;39862;54.856;26.318;2023-02-28T09:56:40;2.2;71.5
53954;HTU21D;39862;54.856;26.318;2023-02-28T10:01:28;2.3;71.5
53954;HTU21D;39862;54.856;26.318;2023-02-28T10:06:22;2.4;71.5
53954;HTU21D;39862;54.856;26.318;2023-02-28T10:11:25;2.5;71.3
53954;HTU21D;39862;54.856;26.318;2023-02-28T10:16:26;2.6;71.1
53954;HTU21D;39862;54.856;26.318;2023-02-28T10:21:15;2.7;71
53954;HTU21D;39862;54.856;26.318;2023-02-28T10:26:14;2.8;70.8
53954;HTU21D;39862;54.856;26.318;2023-02-28T10:31:14;2.9;70.7
53954;HTU21D;39862;54.856;26.318;2023-02-28T10:36:14;3;70.5
53954;HTU21D;39862;54.856;26.318;2023-02-28T10:41:29;3.1;70.4
53954;HTU21D;39862;54.856;26.318;2023-02-28T10:46:39;3.2;70.3
53954;HTU21D;39862;54.856;26.318;2023-02-28T10:51:23;3.3;70.1
53954;HTU21D;39862;54.856;26.318;2023-02-28T10:56:15;3.3;69.8
53954;HTU21D;39862;54.856;26.318;2023-02-28T11:01:14;3.4;69.8
53954;HTU21D;39862;54.856;26.318;2023-02-28T11:06:15;3.4;69.7
53954;HTU21D;39862;54.856;26.318;2023-02-28T11:11:13;3.5;69.6
53954;HTU21D;39862;54.856;26.318;2023-02-28T11:16:31;3.5;69.4
53954;HTU21D;39862;54.856;26.318;2023-02-28T11:21:18;3.5;69.3
53954;HTU21D;39862;54.856;26.318;2023-02-28T11:26:13;3.6;69.3
53954;HTU21D;39862;54.856;26.318;2023-02-28T11:31:19;3.7;69.1
53954;HTU21D;39862;54.856;26.318;2023-02-28T11:36:26;3.7;69
53954;HTU21D;39862;54.856;26.318;2023-02-28T11:41:17;3.8;68.8
53954;HTU21D;39862;54.856;26.318;2023-02-28T11:46:43;3.8;68.6
53954;HTU21D;39862;54.856;26.318;2023-02-28T11:51:28;3.8;68.5
53954;HTU21D;39862;54.856;26.318;2023-02-28T11:56:35;3.8;68.3
53954;HTU21D;39862;54.856;26.318;2023-02-28T12:01:44;3.8;68.4
53954;HTU21D;39862;54.856;26.318;2023-02-28T12:06:15;3.9;68.3
53954;HTU21D;39862;54.856;26.318;2023-02-28T12:11:15;3.9;68.2
53954;HTU21D;39862;54.856;26.318;2023-02-28T12:16:27;3.9;68.2
53954;HTU21D;39862;54.856;26.318;2023-02-28T12:21:36;4;68.2
53954;HTU21D;39862;54.856;26.318;2023-02-28T12:26:14;4;68.1
53954;HTU21D;39862;54.856;26.318;2023-02-28T12:31:23;4;67.9
53954;HTU21D;39862;54.856;26.318;2023-02-28T12:36:21;4.1;67.9
53954;HTU21D;39862;54.856;26.318;2023-02-28T12:41:29;4.1;67.8
53954;HTU21D;39862;54.856;26.318;2023-02-28T12:46:34;4.2;67.8
53954;HTU21D;39862;54.856;26.318;2023-02-28T12:51:25;4.2;67.6
53954;HTU21D;39862;54.856;26.318;2023-02-28T12:56:22;4.2;67.5
53954;HTU21D;39862;54.856;26.318;2023-02-28T13:01:45;4.2;67.3
53954;HTU21D;39862;54.856;26.318;2023-02-28T13:06:28;4.2;67.5
53954;HTU21D;39862;54.856;26.318;2023-02-28T13:11:22;4.2;67.6
53954;HTU21D;39862;54.856;26.318;2023-02-28T13:16:13;4.2;67.5
53954;HTU21D;39862;54.856;26.318;2023-02-28T13:21:21;4.2;67.3
53954;HTU21D;39862;54.856;26.318;2023-02-28T13:31:27;4.1;67.2
53954;HTU21D;39862;54.856;26.318;2023-02-28T13:36:23;4.1;67.1
53954;HTU21D;39862;54.856;26.318;2023-02-28T13:41:40;4.1;67.2
53954;HTU21D;39862;54.856;26.318;2023-02-28T13:46:23;4;67.3
53954;HTU21D;39862;54.856;26.318;2023-02-28T13:51:45;4;67.4
53954;HTU21D;39862;54.856;26.318;2023-02-28T13:56:19;4;67.4
53954;HTU21D;39862;54.856;26.318;2023-02-28T14:01:16;4;67.4
53954;HTU21D;39862;54.856;26.318;2023-02-28T14:06:39;4;67.6
53954;HTU21D;39862;54.856;26.318;2023-02-28T14:11:30;4;67.5
53954;HTU21D;39862;54.856;26.318;2023-02-28T14:16:13;4;67.6
53954;HTU21D;39862;54.856;26.318;2023-02-28T14:21:50;3.9;67.5
53954;HTU21D;39862;54.856;26.318;2023-02-28T14:26:25;3.9;67.6
53954;HTU21D;39862;54.856;26.318;2023-02-28T14:31:13;3.9;67.6
53954;HTU21D;39862;54.856;26.318;2023-02-28T14:36:16;3.9;67.7
53954;HTU21D;39862;54.856;26.318;2023-02-28T14:41:16;3.9;67.7
53954;HTU21D;39862;54.856;26.318;2023-02-28T14:46:13;3.8;67.6
53954;HTU21D;39862;54.856;26.318;2023-02-28T14:51:17;3.8;67.8
53954;HTU21D;39862;54.856;26.318;2023-02-28T14:56:37;3.8;68
53954;HTU21D;39862;54.856;26.318;2023-02-28T15:01:13;3.8;68.1
53954;HTU21D;39862;54.856;26.318;2023-02-28T15:06:14;3.8;68.1
53954;HTU21D;39862;54.856;26.318;2023-02-28T15:11:23;3.8;68.2
53954;HTU21D;39862;54.856;26.318;2023-02-28T15:16:34;3.8;68.2
53954;HTU21D;39862;54.856;26.318;2023-02-28T15:21:40;3.7;68.2
53954;HTU21D;39862;54.856;26.318;2023-02-28T15:26:32;3.7;68.4
53954;HTU21D;39862;54.856;26.318;2023-02-28T15:31:40;3.7;68.6
53954;HTU21D;39862;54.856;26.318;2023-02-28T15:36:14;3.7;68.6
53954;HTU21D;39862;54.856;26.318;2023-02-28T15:41:23;3.6;68.6
53954;HTU21D;39862;54.856;26.318;2023-02-28T15:46:13;3.6;68.8
53954;HTU21D;39862;54.856;26.318;2023-02-28T15:51:32;3.6;68.8
53954;HTU21D;39862;54.856;26.318;2023-02-28T15:56:18;3.6;68.9
53954;HTU21D;39862;54.856;26.318;2023-02-28T16:01:25;3.6;69
53954;HTU21D;39862;54.856;26.318;2023-02-28T16:06:38;3.6;69.1
53954;HTU21D;39862;54.856;26.318;2023-02-28T16:11:13;3.6;69.2
53954;HTU21D;39862;54.856;26.318;2023-02-28T16:16:24;3.6;69.2
53954;HTU21D;39862;54.856;26.318;2023-02-28T16:21:28;3.6;69.2
53954;HTU21D;39862;54.856;26.318;2023-02-28T16:26:16;3.6;69.3
53954;HTU21D;39862;54.856;26.318;2023-02-28T16:31:21;3.6;69.3
53954;HTU21D;39862;54.856;26.318;2023-02-28T16:36:14;3.6;69.4
53954;HTU21D;39862;54.856;26.318;2023-02-28T16:41:22;3.6;69.5
53954;HTU21D;39862;54.856;26.318;2023-02-28T16:46:28;3.6;69.5
53954;HTU21D;39862;54.856;26.318;2023-02-28T16:51:13;3.6;69.5
53954;HTU21D;39862;54.856;26.318;2023-02-28T16:56:22;3.6;69.7
53954;HTU21D;39862;54.856;26.318;2023-02-28T17:01:25;3.6;69.8
53954;HTU21D;39862;54.856;26.318;2023-02-28T17:06:25;3.6;69.9
53954;HTU21D;39862;54.856;26.318;2023-02-28T17:11:25;3.6;70
53954;HTU21D;39862;54.856;26.318;2023-02-28T17:16:15;3.6;70
53954;HTU21D;39862;54.856;26.318;2023-02-28T17:21:14;3.6;70
53954;HTU21D;39862;54.856;26.318;2023-02-28T17:26:14;3.6;70.1
53954;HTU21D;39862;54.856;26.318;2023-02-28T17:31:35;3.6;70.2
53954;HTU21D;39862;54.856;26.318;2023-02-28T17:36:24;3.6;70.5
53954;HTU21D;39862;54.856;26.318;2023-02-28T17:41:27;3.6;70.6
53954;HTU21D;39862;54.856;26.318;2023-02-28T17:46:14;3.7;70.6
53954;HTU21D;39862;54.856;26.318;2023-02-28T17:51:35;3.7;70.7
53954;HTU21D;39862;54.856;26.318;2023-02-28T17:56:24;3.7;70.9
53954;HTU21D;39862;54.856;26.318;2023-02-28T18:01:13;3.7;71
53954;HTU21D;39862;54.856;26.318;2023-02-28T18:06:14;3.7;71.1
53954;HTU21D;39862;54.856;26.318;2023-02-28T18:11:13;3.7;71.1
53954;HTU21D;39862;54.856;26.318;2023-02-28T18:16:13;3.7;71.2
53954;HTU21D;39862;54.856;26.318;2023-02-28T18:21:14;3.6;71.4
53954;HTU21D;39862;54.856;26.318;2023-02-28T18:26:14;3.6;71.5
53954;HTU21D;39862;54.856;26.318;2023-02-28T18:31:27;3.6;71.6
53954;HTU21D;39862;54.856;26.318;2023-02-28T18:36:21;3.7;71.8
53954;HTU21D;39862;54.856;26.318;2023-02-28T18:41:21;3.7;71.8
53954;HTU21D;39862;54.856;26.318;2023-02-28T18:46:35;3.7;71.9
53954;HTU21D;39862;54.856;26.318;2023-02-28T18:51:25;3.7;72
53954;HTU21D;39862;54.856;26.318;2023-02-28T18:56:27;3.7;72
53954;HTU21D;39862;54.856;26.318;2023-02-28T19:01:14;3.7;72.1
53954;HTU21D;39862;54.856;26.318;2023-02-28T19:06:13;3.8;72.1
53954;HTU21D;39862;54.856;26.318;2023-02-28T19:11:24;3.7;72.2
53954;HTU21D;39862;54.856;26.318;2023-02-28T19:16:27;3.8;72.2
53954;HTU21D;39862;54.856;26.318;2023-02-28T19:21:35;3.8;72.3
53954;HTU21D;39862;54.856;26.318;2023-02-28T19:26:14;3.8;72.4
53954;HTU21D;39862;54.856;26.318;2023-02-28T19:31:27;3.8;72.5
53954;HTU21D;39862;54.856;26.318;2023-02-28T19:36:23;3.8;72.5
53954;HTU21D;39862;54.856;26.318;2023-02-28T19:41:35;3.8;72.6
53954;HTU21D;39862;54.856;26.318;2023-02-28T19:46:21;3.8;72.5
53954;HTU21D;39862;54.856;26.318;2023-02-28T19:51:13;3.8;72.6
53954;HTU21D;39862;54.856;26.318;2023-02-28T19:56:28;3.8;72.6
53954;HTU21D;39862;54.856;26.318;2023-02-28T20:01:14;3.8;72.7
53954;HTU21D;39862;54.856;26.318;2023-02-28T20:06:25;3.8;72.6
53954;HTU21D;39862;54.856;26.318;2023-02-28T20:11:14;3.8;72.6
53954;HTU21D;39862;54.856;26.318;2023-02-28T20:16:35;3.9;72.6
53954;HTU21D;39862;54.856;26.318;2023-02-28T20:21:13;3.9;72.6
53954;HTU21D;39862;54.856;26.318;2023-02-28T20:26:43;3.9;72.6
53954;HTU21D;39862;54.856;26.318;2023-02-28T20:31:14;3.9;72.5
53954;HTU21D;39862;54.856;26.318;2023-02-28T20:36:35;3.9;72.5
53954;HTU21D;39862;54.856;26.318;2023-02-28T20:41:21;3.9;72.7
53954;HTU21D;39862;54.856;26.318;2023-02-28T20:46:27;3.9;72.7
53954;HTU21D;39862;54.856;26.318;2023-02-28T20:51:23;3.9;72.7
53954;HTU21D;39862;54.856;26.318;2023-02-28T20:56:14;3.9;72.6
53954;HTU21D;39862;54.856;26.318;2023-02-28T21:01:14;3.9;72.7
53954;HTU21D;39862;54.856;26.318;2023-02-28T21:06:22;3.9;72.7
53954;HTU21D;39862;54.856;26.318;2023-02-28T21:11:14;3.9;72.6
53954;HTU21D;39862;54.856;26.318;2023-02-28T21:16:45;3.9;72.7
53954;HTU21D;39862;54.856;26.318;2023-02-28T21:21:14;4;72.7
53954;HTU21D;39862;54.856;26.318;2023-02-28T21:26:35;4;72.7
53954;HTU21D;39862;54.856;26.318;2023-02-28T21:31:14;4;72.6
53954;HTU21D;39862;54.856;26.318;2023-02-28T21:36:14;4;72.6
53954;HTU21D;39862;54.856;26.318;2023-02-28T21:41:45;4;72.6
53954;HTU21D;39862;54.856;26.318;2023-02-28T21:46:14;4;72.5
53954;HTU21D;39862;54.856;26.318;2023-02-28T21:51:24;4.1;72.4
53954;HTU21D;39862;54.856;26.318;2023-02-28T21:56:14;4;72.4
53954;HTU21D;39862;54.856;26.318;2023-02-28T22:01:20;4;72.4
53954;HTU21D;39862;54.856;26.318;2023-02-28T22:06:36;4;72.4
53954;HTU21D;39862;54.856;26.318;2023-02-28T22:11:14;4;72.4
53954;HTU21D;39862;54.856;26.318;2023-02-28T22:16:14;4;72.4
53954;HTU21D;39862;54.856;26.318;2023-02-28T22:21:36;4;72.4
53954;HTU21D;39862;54.856;26.318;2023-02-28T22:26:27;4;72.4
53954;HTU21D;39862;54.856;26.318;2023-02-28T22:31:24;4;72.5
53954;HTU21D;39862;54.856;26.318;2023-02-28T22:36:23;4;72.4
53954;HTU21D;39862;54.856;26.318;2023-02-28T22:41:13;4;72.4
53954;HTU21D;39862;54.856;26.318;2023-02-28T22:46:35;4;72.4
53954;HTU21D;39862;54.856;26.318;2023-02-28T22:51:27;4;72.5
53954;HTU21D;39862;54.856;26.318;2023-02-28T22:56:14;4;72.5
53954;HTU21D;39862;54.856;26.318;2023-02-28T23:01:14;4;72.5
53954;HTU21D;39862;54.856;26.318;2023-02-28T23:06:14;3.9;72.6
53954;HTU21D;39862;54.856;26.318;2023-02-28T23:11:37;4;72.5
53954;HTU21D;39862;54.856;26.318;2023-02-28T23:16:13;4;72.4
53954;HTU21D;39862;54.856;26.318;2023-02-28T23:21:13;4;72.4
53954;HTU21D;39862;54.856;26.318;2023-02-28T23:26:13;4;72.4
53954;HTU21D;39862;54.856;26.318;2023-02-28T23:31:13;4;72.3
53954;HTU21D;39862;54.856;26.318;2023-02-28T23:36:19;4;72.2
53954;HTU21D;39862;54.856;26.318;2023-02-28T23:41:14;4;72.1
53954;HTU21D;39862;54.856;26.318;2023-02-28T23:46:19;4;72.1
53954;HTU21D;39862;54.856;26.318;2023-02-28T23:51:14;4;72.1
53954;HTU21D;39862;54.856;26.318;2023-02-28T23:56:20;4;72
